Bloomfield, Michigan
Current Conditions -  °F | °C
As of 7:54 PM on Wednesday 17 Dec 2014 (Local Time) from KVLL Reporting Station
Overcast Overcast  
Wind Chill: 21°   Ceiling: 2700
Heat Index: 31°   Visibility: 10mi
Dew Point: 20°   Wind: 14mph
Humidity: 64%   Direction: 290°WNW
Pressure: 30.14"   Gusts: 18mph
Location:  42.5836°N, 83.2458°W
Report Text: KVLL 180054Z AUTO 29012G16KT 10SM OVC027 M01/M07 A3014 RMK AO2 T10061067
Loading
Personal Weather Stations






























Interactive Weather Map New forecast layout! Learn more

10-Day Weather Forecast

Advertisements
Track Severe Weather on mobile